Time;durP1;ratioP1;P1;durP2;ratioP2;P2;SDS_P1;SDS_P2;PMS_P1;PMS_P2;Temp;Humidity;BMP_temperature;BMP_pressure;BME280_temperature;BME280_humidity;BME280_pressure;Samples;Min_cycle;Max_cycle;Signal;HPM_P1;HPM_P2
2023/08/18 00:01:15;;;;;;;16.40;9.25;;;;;;;;;;5030986;28;20029;-84
2023/08/18 00:03:40;;;;;;;11.80;7.55;;;;;;;;;;5030722;28;20087;-84
2023/08/18 00:06:06;;;;;;;14.57;7.95;;;;;;;;;;5030337;28;20095;-84
2023/08/18 00:08:31;;;;;;;13.15;7.93;;;;;;;;;;5046831;28;20179;-84
2023/08/18 00:10:57;;;;;;;14.35;8.27;;;;;;;;;;5032139;28;20029;-84
2023/08/18 00:13:22;;;;;;;20.65;8.30;;;;;;;;;;5014006;28;20546;-84
2023/08/18 00:15:48;;;;;;;12.45;7.18;;;;;;;;;;5013823;28;20151;-84
2023/08/18 00:18:13;;;;;;;13.35;7.22;;;;;;;;;;5031407;28;20052;-84
2023/08/18 00:20:39;;;;;;;13.30;8.02;;;;;;;;;;5013309;28;20140;-84
2023/08/18 00:23:04;;;;;;;12.68;7.53;;;;;;;;;;5031537;28;20025;-84
2023/08/18 00:25:30;;;;;;;13.57;7.70;;;;;;;;;;5013708;28;20024;-83
2023/08/18 00:27:55;;;;;;;13.15;7.40;;;;;;;;;;5013619;28;20136;-84
2023/08/18 00:30:24;;;;;;;14.35;8.02;;;;;;;;;;5030277;28;20090;-84
2023/08/18 00:32:50;;;;;;;11.60;7.75;;;;;;;;;;5029859;28;20069;-84
2023/08/18 00:35:15;;;;;;;10.90;7.43;;;;;;;;;;5030173;28;20048;-84
2023/08/18 00:37:42;;;;;;;12.32;7.85;;;;;;;;;;5030105;28;20126;-84
2023/08/18 00:40:09;;;;;;;14.88;8.32;;;;;;;;;;5030070;28;20103;-84
2023/08/18 00:42:34;;;;;;;14.77;7.57;;;;;;;;;;5030198;28;20099;-83
2023/08/18 00:45:00;;;;;;;10.70;7.75;;;;;;;;;;5029955;28;20025;-84
2023/08/18 00:47:26;;;;;;;9.50;7.60;;;;;;;;;;5014015;28;20041;-84
2023/08/18 00:49:52;;;;;;;10.05;7.30;;;;;;;;;;5030598;28;20040;-84
2023/08/18 00:52:19;;;;;;;10.30;7.70;;;;;;;;;;5047020;28;20357;-84
2023/08/18 00:54:47;;;;;;;11.30;7.55;;;;;;;;;;5014015;28;20025;-84
2023/08/18 00:57:12;;;;;;;12.20;7.07;;;;;;;;;;5013992;28;20413;-84
2023/08/18 00:59:38;;;;;;;11.52;7.05;;;;;;;;;;5046739;28;20025;-84
2023/08/18 01:02:03;;;;;;;12.35;7.22;;;;;;;;;;5030140;28;20080;-84
2023/08/18 01:04:30;;;;;;;9.75;7.32;;;;;;;;;;5013294;28;20037;-83
2023/08/18 01:06:56;;;;;;;13.00;8.20;;;;;;;;;;5030992;28;20552;-84
2023/08/18 01:09:21;;;;;;;16.23;8.23;;;;;;;;;;5029596;28;20128;-84
2023/08/18 01:12:06;;;;;;;13.20;7.00;;;;;;;;;;5030133;28;20124;-84
2023/08/18 01:14:55;;;;;;;11.63;7.38;;;;;;;;;;5029626;28;20482;-85
2023/08/18 01:17:39;;;;;;;12.80;7.18;;;;;;;;;;5013062;28;20034;-84
2023/08/18 01:20:05;;;;;;;15.48;7.50;;;;;;;;;;5029846;28;20069;-83
2023/08/18 01:22:32;;;;;;;14.27;7.95;;;;;;;;;;5029613;28;20037;-84
2023/08/18 01:25:00;;;;;;;12.30;8.07;;;;;;;;;;5013340;28;20045;-84
2023/08/18 01:27:28;;;;;;;11.82;7.45;;;;;;;;;;4996785;28;20029;-84
2023/08/18 01:29:54;;;;;;;10.85;7.10;;;;;;;;;;5029579;28;20037;-84
2023/08/18 01:32:22;;;;;;;11.07;7.13;;;;;;;;;;5013138;28;20049;-84
2023/08/18 01:34:48;;;;;;;12.55;6.70;;;;;;;;;;5049258;28;20110;-84
2023/08/18 01:37:14;;;;;;;10.63;7.25;;;;;;;;;;5017349;28;20051;-84
2023/08/18 01:39:39;;;;;;;7.85;6.13;;;;;;;;;;5033948;28;20029;-84
2023/08/18 01:42:05;;;;;;;7.75;5.90;;;;;;;;;;5035054;28;20021;-84
2023/08/18 01:44:31;;;;;;;9.48;6.20;;;;;;;;;;5033043;28;20045;-84
2023/08/18 01:46:56;;;;;;;7.03;5.90;;;;;;;;;;5033055;28;20036;-84
2023/08/18 01:49:21;;;;;;;9.10;6.22;;;;;;;;;;5032886;28;20041;-84
2023/08/18 01:51:47;;;;;;;9.27;5.32;;;;;;;;;;5016101;28;20053;-84
2023/08/18 01:54:13;;;;;;;8.57;6.32;;;;;;;;;;5032919;28;20430;-84
2023/08/18 01:56:39;;;;;;;9.80;6.18;;;;;;;;;;5032836;28;20484;-85
2023/08/18 01:59:04;;;;;;;10.30;6.28;;;;;;;;;;5049212;28;20033;-84
2023/08/18 02:01:30;;;;;;;8.57;6.28;;;;;;;;;;5032841;28;20031;-84
2023/08/18 02:03:55;;;;;;;11.90;6.30;;;;;;;;;;5034013;28;20194;-84
2023/08/18 02:06:21;;;;;;;7.88;5.75;;;;;;;;;;5032653;28;20030;-83
2023/08/18 02:08:46;;;;;;;10.90;6.00;;;;;;;;;;5016897;28;20128;-84
2023/08/18 02:11:12;;;;;;;9.05;6.10;;;;;;;;;;5032690;28;20120;-84
2023/08/18 02:13:37;;;;;;;11.75;6.35;;;;;;;;;;5032627;28;20041;-84
2023/08/18 02:16:03;;;;;;;7.30;6.10;;;;;;;;;;5015774;28;20025;-84
2023/08/18 02:18:30;;;;;;;9.50;6.10;;;;;;;;;;5032046;28;20033;-84
2023/08/18 02:20:55;;;;;;;8.25;6.35;;;;;;;;;;5031934;28;20056;-83
2023/08/18 02:23:21;;;;;;;7.43;6.15;;;;;;;;;;5032296;28;20104;-83
2023/08/18 02:25:47;;;;;;;7.97;6.13;;;;;;;;;;5032269;28;20481;-84
2023/08/18 02:28:12;;;;;;;10.57;6.43;;;;;;;;;;5031963;28;20033;-83
2023/08/18 02:30:38;;;;;;;8.85;6.70;;;;;;;;;;5015613;28;20025;-83
2023/08/18 02:33:03;;;;;;;9.00;6.72;;;;;;;;;;5032565;28;20105;-84
2023/08/18 02:35:29;;;;;;;7.93;6.72;;;;;;;;;;5031949;28;20033;-84
2023/08/18 02:37:55;;;;;;;8.85;6.40;;;;;;;;;;5016038;28;20037;-83
2023/08/18 02:40:22;;;;;;;7.32;6.47;;;;;;;;;;5015783;28;20018;-84
2023/08/18 02:42:47;;;;;;;9.63;6.03;;;;;;;;;;5015734;28;20499;-84
2023/08/18 02:45:13;;;;;;;8.32;6.05;;;;;;;;;;5031531;28;20443;-84
2023/08/18 02:47:38;;;;;;;7.50;6.25;;;;;;;;;;5032229;28;20033;-84
2023/08/18 02:50:05;;;;;;;9.02;6.20;;;;;;;;;;5031996;28;20052;-84
2023/08/18 02:52:31;;;;;;;8.90;6.28;;;;;;;;;;5031771;28;20044;-84
2023/08/18 02:54:57;;;;;;;10.32;6.00;;;;;;;;;;5015014;28;20030;-84
2023/08/18 02:57:22;;;;;;;8.70;6.15;;;;;;;;;;5031589;28;20083;-84
2023/08/18 02:59:48;;;;;;;8.43;5.90;;;;;;;;;;5031766;28;20114;-84
2023/08/18 03:02:13;;;;;;;7.85;5.97;;;;;;;;;;5031664;28;20432;-84
2023/08/18 03:04:39;;;;;;;9.55;6.35;;;;;;;;;;5031446;28;20050;-84
2023/08/18 03:07:04;;;;;;;9.05;6.13;;;;;;;;;;5032772;28;20037;-84
2023/08/18 03:09:30;;;;;;;8.05;6.22;;;;;;;;;;5032859;28;20373;-84
2023/08/18 03:11:55;;;;;;;10.98;6.97;;;;;;;;;;5032834;28;20041;-84
2023/08/18 03:14:22;;;;;;;8.57;6.57;;;;;;;;;;5031979;28;20654;-83
2023/08/18 03:16:49;;;;;;;8.13;6.25;;;;;;;;;;5031614;28;20700;-82
2023/08/18 03:19:15;;;;;;;13.93;6.32;;;;;;;;;;5031302;28;20014;-83
2023/08/18 03:21:40;;;;;;;10.95;6.30;;;;;;;;;;5031383;28;20050;-85
2023/08/18 03:24:06;;;;;;;10.82;6.68;;;;;;;;;;5031378;28;20403;-85
2023/08/18 03:26:31;;;;;;;11.13;6.32;;;;;;;;;;5031155;28;20033;-85
2023/08/18 03:28:57;;;;;;;8.38;6.10;;;;;;;;;;5014466;28;20071;-85
2023/08/18 03:31:23;;;;;;;12.63;6.50;;;;;;;;;;5030902;28;20033;-83
2023/08/18 03:33:48;;;;;;;10.50;6.47;;;;;;;;;;5014703;28;20029;-85
2023/08/18 03:36:18;;;;;;;11.30;6.78;;;;;;;;;;5031026;28;20093;-85
2023/08/18 03:38:44;;;;;;;10.38;6.07;;;;;;;;;;5014468;28;20124;-84
2023/08/18 03:41:10;;;;;;;10.55;6.60;;;;;;;;;;5014544;28;20129;-84
2023/08/18 03:43:35;;;;;;;10.98;6.38;;;;;;;;;;4998328;28;20471;-83
2023/08/18 03:46:28;;;;;;;8.88;5.95;;;;;;;;;;5047744;28;20037;-84
2023/08/18 03:48:57;;;;;;;10.52;6.30;;;;;;;;;;5030134;28;20049;-83
2023/08/18 03:51:22;;;;;;;9.88;6.68;;;;;;;;;;5032444;28;20120;-84
2023/08/18 03:53:48;;;;;;;11.93;7.95;;;;;;;;;;5014306;28;20124;-84
2023/08/18 03:56:15;;;;;;;13.98;7.72;;;;;;;;;;5030357;28;20052;-84
2023/08/18 03:58:44;;;;;;;12.98;6.40;;;;;;;;;;5031653;28;20045;-84
2023/08/18 04:01:10;;;;;;;10.45;6.22;;;;;;;;;;5030644;28;20029;-84
2023/08/18 04:03:38;;;;;;;14.77;6.38;;;;;;;;;;5014699;28;20088;-84
2023/08/18 04:06:04;;;;;;;10.60;6.05;;;;;;;;;;5030879;28;20025;-84
2023/08/18 04:08:32;;;;;;;11.07;6.50;;;;;;;;;;5014084;28;20049;-84
2023/08/18 04:10:59;;;;;;;11.13;6.20;;;;;;;;;;5030099;28;20037;-84
2023/08/18 04:13:24;;;;;;;19.48;7.03;;;;;;;;;;4997351;28;20085;-84
2023/08/18 04:15:51;;;;;;;21.88;7.07;;;;;;;;;;5014656;28;20036;-85
2023/08/18 04:18:16;;;;;;;13.13;7.25;;;;;;;;;;5030203;28;20033;-85
2023/08/18 04:20:42;;;;;;;26.35;6.40;;;;;;;;;;5031322;28;20543;-84
2023/08/18 04:23:07;;;;;;;27.63;6.90;;;;;;;;;;5030444;28;20069;-84
2023/08/18 04:25:32;;;;;;;18.85;7.03;;;;;;;;;;5013649;28;20033;-84
2023/08/18 04:27:58;;;;;;;13.73;6.35;;;;;;;;;;5030045;28;20025;-84
2023/08/18 04:30:25;;;;;;;15.27;6.13;;;;;;;;;;5030284;28;20041;-84
2023/08/18 04:32:50;;;;;;;12.60;6.32;;;;;;;;;;5013901;28;20141;-84
2023/08/18 04:35:16;;;;;;;9.50;6.15;;;;;;;;;;5013634;28;20132;-84
2023/08/18 04:37:43;;;;;;;11.07;6.00;;;;;;;;;;5013812;28;20021;-84
2023/08/18 04:40:09;;;;;;;13.30;5.55;;;;;;;;;;5029985;28;20132;-84
2023/08/18 04:42:35;;;;;;;16.20;5.75;;;;;;;;;;5013492;28;20120;-84
2023/08/18 04:45:01;;;;;;;9.23;5.82;;;;;;;;;;5030121;28;20413;-84
2023/08/18 04:47:28;;;;;;;11.32;5.32;;;;;;;;;;5014314;28;20040;-85
2023/08/18 04:49:53;;;;;;;10.50;5.70;;;;;;;;;;5046687;28;20463;-84
2023/08/18 04:52:19;;;;;;;11.77;5.65;;;;;;;;;;5013803;28;20095;-84
2023/08/18 04:54:45;;;;;;;12.00;6.10;;;;;;;;;;5013332;28;20408;-84
2023/08/18 04:57:11;;;;;;;13.43;6.20;;;;;;;;;;5013845;28;20021;-85
2023/08/18 04:59:37;;;;;;;13.32;5.97;;;;;;;;;;5029913;28;20041;-84
2023/08/18 05:02:05;;;;;;;13.52;6.85;;;;;;;;;;5029723;28;20030;-85
2023/08/18 05:04:31;;;;;;;12.43;6.85;;;;;;;;;;5013313;28;20048;-85
2023/08/18 05:06:57;;;;;;;14.75;7.05;;;;;;;;;;5013461;28;20492;-84
2023/08/18 05:09:23;;;;;;;9.75;6.75;;;;;;;;;;5033096;28;20044;-83
2023/08/18 05:11:48;;;;;;;15.13;7.07;;;;;;;;;;5017327;28;20061;-84
2023/08/18 05:14:14;;;;;;;14.65;7.38;;;;;;;;;;5034902;28;20076;-84
2023/08/18 05:16:40;;;;;;;15.27;7.80;;;;;;;;;;5034952;28;20071;-84
2023/08/18 05:19:06;;;;;;;15.35;7.78;;;;;;;;;;5017517;28;20034;-84
2023/08/18 05:21:31;;;;;;;14.93;7.85;;;;;;;;;;5033357;28;20655;-84
2023/08/18 05:23:56;;;;;;;14.50;7.95;;;;;;;;;;5017267;28;20515;-84
2023/08/18 05:26:22;;;;;;;15.07;7.78;;;;;;;;;;5033343;28;20033;-85
2023/08/18 05:28:47;;;;;;;13.70;8.30;;;;;;;;;;5033772;28;20037;-85
2023/08/18 05:31:13;;;;;;;17.27;8.88;;;;;;;;;;5016778;28;20029;-84
2023/08/18 05:33:39;;;;;;;18.50;9.60;;;;;;;;;;5016810;28;20049;-84
2023/08/18 05:36:05;;;;;;;17.35;9.38;;;;;;;;;;5032943;28;20032;-83
2023/08/18 05:38:31;;;;;;;23.13;9.98;;;;;;;;;;5016562;28;20079;-85
2023/08/18 05:41:06;;;;;;;19.88;9.93;;;;;;;;;;5016627;28;20112;-85
2023/08/18 05:43:34;;;;;;;14.85;9.63;;;;;;;;;;5032816;28;20040;-84
2023/08/18 05:46:00;;;;;;;21.10;11.60;;;;;;;;;;5016826;28;20112;-85
2023/08/18 05:48:25;;;;;;;53.03;35.95;;;;;;;;;;5033138;28;20125;-84
2023/08/18 05:50:51;;;;;;;63.03;38.65;;;;;;;;;;5016372;28;20040;-84
2023/08/18 05:53:16;;;;;;;48.95;27.98;;;;;;;;;;5034096;28;20025;-84
2023/08/18 05:55:42;;;;;;;36.33;22.73;;;;;;;;;;5016475;28;20025;-84
2023/08/18 05:58:07;;;;;;;41.85;30.25;;;;;;;;;;5034193;28;20581;-84
2023/08/18 06:00:33;;;;;;;32.88;21.92;;;;;;;;;;5032961;28;20491;-85
2023/08/18 06:02:59;;;;;;;24.30;13.73;;;;;;;;;;5033189;28;20042;-84
2023/08/18 06:05:28;;;;;;;25.73;15.93;;;;;;;;;;5032693;28;20037;-84
2023/08/18 06:07:54;;;;;;;21.13;12.38;;;;;;;;;;5033770;28;20408;-84
2023/08/18 06:10:19;;;;;;;20.63;10.13;;;;;;;;;;5016091;28;20055;-84
2023/08/18 06:12:45;;;;;;;17.10;9.90;;;;;;;;;;5032321;28;20049;-84
2023/08/18 06:15:11;;;;;;;12.05;6.88;;;;;;;;;;5033362;28;20114;-84
2023/08/18 06:17:36;;;;;;;16.55;8.77;;;;;;;;;;5033484;28;20095;-84
2023/08/18 06:20:02;;;;;;;13.40;7.90;;;;;;;;;;5032948;28;20136;-84
2023/08/18 06:22:28;;;;;;;17.90;7.88;;;;;;;;;;5031709;28;20123;-84
2023/08/18 06:24:53;;;;;;;19.73;8.07;;;;;;;;;;5033034;28;20059;-84
2023/08/18 06:27:18;;;;;;;14.55;6.78;;;;;;;;;;5032036;28;20458;-85
2023/08/18 06:29:44;;;;;;;12.18;6.20;;;;;;;;;;5032274;28;20026;-84
2023/08/18 06:32:09;;;;;;;14.57;5.43;;;;;;;;;;5015426;28;20071;-84
2023/08/18 06:34:35;;;;;;;10.55;4.78;;;;;;;;;;5015218;28;20064;-85
2023/08/18 06:37:01;;;;;;;8.35;4.63;;;;;;;;;;5032673;28;20037;-84
2023/08/18 06:39:26;;;;;;;9.68;4.03;;;;;;;;;;5032020;28;20026;-84
2023/08/18 06:41:52;;;;;;;4.75;3.55;;;;;;;;;;4999463;28;20030;-84
2023/08/18 06:44:18;;;;;;;5.05;3.17;;;;;;;;;;5015461;28;20484;-84
2023/08/18 06:46:43;;;;;;;8.40;3.65;;;;;;;;;;5031622;28;20034;-84
2023/08/18 06:49:09;;;;;;;5.68;3.03;;;;;;;;;;5033068;28;20452;-84
2023/08/18 06:51:34;;;;;;;7.38;3.38;;;;;;;;;;5032024;28;20182;-84
2023/08/18 06:54:00;;;;;;;4.07;3.10;;;;;;;;;;5015048;28;20488;-84
2023/08/18 06:56:25;;;;;;;10.98;3.33;;;;;;;;;;5014893;28;20400;-84
2023/08/18 06:58:50;;;;;;;7.00;3.13;;;;;;;;;;5032727;28;20036;-85
2023/08/18 07:01:16;;;;;;;5.30;3.00;;;;;;;;;;5031736;28;20026;-85
2023/08/18 07:03:41;;;;;;;5.10;3.00;;;;;;;;;;5015155;28;20079;-85
2023/08/18 07:06:08;;;;;;;5.43;3.17;;;;;;;;;;5031319;28;20045;-84
2023/08/18 07:08:34;;;;;;;5.85;2.78;;;;;;;;;;5015336;28;20040;-84
2023/08/18 07:10:59;;;;;;;8.48;2.88;;;;;;;;;;5014805;28;20041;-85
2023/08/18 07:13:25;;;;;;;7.03;2.92;;;;;;;;;;5031138;28;20033;-85
2023/08/18 07:15:50;;;;;;;8.73;3.10;;;;;;;;;;5032307;28;20417;-84
2023/08/18 07:18:19;;;;;;;6.88;2.80;;;;;;;;;;5031489;28;20057;-84
2023/08/18 07:20:47;;;;;;;4.57;2.58;;;;;;;;;;5032044;28;20045;-85
2023/08/18 07:23:13;;;;;;;6.32;2.50;;;;;;;;;;5031130;28;20075;-85
2023/08/18 07:25:39;;;;;;;5.00;2.78;;;;;;;;;;5032319;28;20506;-85
2023/08/18 07:28:06;;;;;;;4.00;2.88;;;;;;;;;;5032361;28;20077;-85
2023/08/18 07:33:21;;;;;;;7.28;3.50;;;;;;;;;;5031836;28;20053;-85
2023/08/18 07:35:47;;;;;;;9.48;3.33;;;;;;;;;;5030709;28;20400;-85
2023/08/18 07:38:12;;;;;;;7.30;3.35;;;;;;;;;;5032557;28;20021;-85
2023/08/18 07:40:38;;;;;;;7.05;3.45;;;;;;;;;;5030722;28;20385;-84
2023/08/18 07:43:03;;;;;;;6.72;3.30;;;;;;;;;;4997592;28;20022;-85
2023/08/18 07:45:29;;;;;;;10.20;3.50;;;;;;;;;;5031773;28;20088;-85
2023/08/18 07:47:55;;;;;;;4.68;2.80;;;;;;;;;;5030752;28;20032;-84
2023/08/18 07:50:20;;;;;;;6.60;2.35;;;;;;;;;;5014380;28;20038;-84
2023/08/18 07:52:46;;;;;;;5.75;2.42;;;;;;;;;;5030498;28;20029;-84
2023/08/18 07:55:11;;;;;;;4.53;2.60;;;;;;;;;;5014161;28;20057;-85
2023/08/18 07:57:37;;;;;;;8.27;2.95;;;;;;;;;;5031830;28;20029;-84
2023/08/18 08:00:21;;;;;;;5.75;2.80;;;;;;;;;;5031882;28;20504;-84
2023/08/18 08:02:47;;;;;;;5.03;2.55;;;;;;;;;;5016082;28;20083;-84
2023/08/18 08:05:13;;;;;;;7.90;2.92;;;;;;;;;;5013926;28;20029;-85
2023/08/18 08:07:38;;;;;;;7.47;2.80;;;;;;;;;;5030392;28;20043;-84
2023/08/18 08:10:04;;;;;;;7.20;3.03;;;;;;;;;;5013912;28;20028;-84
2023/08/18 08:12:30;;;;;;;18.85;3.50;;;;;;;;;;5031939;28;20029;-84
2023/08/18 08:14:56;;;;;;;9.30;3.58;;;;;;;;;;5030247;28;20029;-84
2023/08/18 08:17:22;;;;;;;9.88;3.22;;;;;;;;;;5030175;28;20424;-84
2023/08/18 08:19:47;;;;;;;6.32;3.38;;;;;;;;;;5030049;28;20057;-85
2023/08/18 08:22:13;;;;;;;13.15;4.15;;;;;;;;;;5030265;28;20029;-85
2023/08/18 08:24:38;;;;;;;9.63;4.43;;;;;;;;;;5029825;28;20134;-84
2023/08/18 08:27:04;;;;;;;5.88;3.90;;;;;;;;;;5030345;28;20044;-85
2023/08/18 08:29:29;;;;;;;9.20;3.50;;;;;;;;;;5031126;28;20041;-85
2023/08/18 08:31:55;;;;;;;13.60;3.95;;;;;;;;;;5030936;28;20036;-84
2023/08/18 08:34:20;;;;;;;11.02;3.28;;;;;;;;;;5030552;28;20051;-84
2023/08/18 08:36:46;;;;;;;7.22;3.35;;;;;;;;;;5030171;28;20517;-85
2023/08/18 08:39:11;;;;;;;9.55;3.40;;;;;;;;;;5031317;28;20429;-84
2023/08/18 08:41:37;;;;;;;8.95;3.35;;;;;;;;;;5030020;28;20103;-84
2023/08/18 08:44:02;;;;;;;6.25;3.70;;;;;;;;;;5035868;28;20484;-84
2023/08/18 08:46:28;;;;;;;8.63;2.90;;;;;;;;;;5035434;28;20042;-85
2023/08/18 08:48:53;;;;;;;6.88;3.00;;;;;;;;;;5034174;28;20021;-85
2023/08/18 08:51:19;;;;;;;7.15;2.88;;;;;;;;;;5017387;28;20043;-84
2023/08/18 08:53:48;;;;;;;9.95;2.63;;;;;;;;;;5033957;28;20117;-85
2023/08/18 08:56:14;;;;;;;6.53;2.70;;;;;;;;;;5033717;28;20451;-85
2023/08/18 08:58:39;;;;;;;9.55;3.00;;;;;;;;;;5034008;28;20037;-85
2023/08/18 09:01:06;;;;;;;9.63;3.13;;;;;;;;;;5033892;28;20025;-85
2023/08/18 09:03:32;;;;;;;8.13;4.20;;;;;;;;;;5035247;28;20017;-85
2023/08/18 09:05:58;;;;;;;4.50;3.10;;;;;;;;;;5017441;28;20091;-85
2023/08/18 09:08:23;;;;;;;6.00;3.05;;;;;;;;;;5017459;28;20057;-84
2023/08/18 09:10:49;;;;;;;7.68;3.20;;;;;;;;;;5035323;28;20044;-85
2023/08/18 09:13:14;;;;;;;8.40;3.90;;;;;;;;;;5034159;28;20025;-83
2023/08/18 09:15:46;;;;;;;12.20;3.03;;;;;;;;;;5033599;28;20037;-85
2023/08/18 09:18:12;;;;;;;8.25;3.13;;;;;;;;;;5017764;28;20041;-85
2023/08/18 09:20:38;;;;;;;4.00;2.47;;;;;;;;;;5033542;28;20057;-85
2023/08/18 09:23:03;;;;;;;4.28;2.60;;;;;;;;;;5033654;28;20087;-85
2023/08/18 09:25:30;;;;;;;8.25;2.55;;;;;;;;;;5033545;28;20094;-85
2023/08/18 09:27:55;;;;;;;4.75;2.40;;;;;;;;;;5033583;28;20033;-85
2023/08/18 09:30:22;;;;;;;3.50;2.50;;;;;;;;;;5034531;28;20040;-85
2023/08/18 09:32:49;;;;;;;4.55;2.50;;;;;;;;;;5034511;28;20036;-85
2023/08/18 09:35:16;;;;;;;6.40;2.75;;;;;;;;;;5033331;28;20408;-85
2023/08/18 09:37:42;;;;;;;6.72;2.33;;;;;;;;;;5033569;28;20029;-85
2023/08/18 09:40:07;;;;;;;4.97;2.45;;;;;;;;;;5033396;28;20538;-85
2023/08/18 09:42:33;;;;;;;5.10;2.60;;;;;;;;;;5034518;28;20096;-84
2023/08/18 09:44:58;;;;;;;6.30;2.58;;;;;;;;;;5035346;28;20040;-85
2023/08/18 09:47:24;;;;;;;8.35;2.63;;;;;;;;;;5033550;28;20033;-85
2023/08/18 09:49:51;;;;;;;3.72;2.20;;;;;;;;;;5033111;28;20033;-85
2023/08/18 09:52:17;;;;;;;6.75;2.17;;;;;;;;;;5033402;28;20045;-85
2023/08/18 09:54:46;;;;;;;6.95;2.40;;;;;;;;;;5032335;28;20035;-84
2023/08/18 09:57:14;;;;;;;4.55;2.40;;;;;;;;;;5033300;28;20037;-85
2023/08/18 09:59:43;;;;;;;5.55;2.42;;;;;;;;;;5016595;28;20431;-85
2023/08/18 10:02:10;;;;;;;4.32;2.40;;;;;;;;;;5033013;28;20124;-85
2023/08/18 10:04:41;;;;;;;5.70;2.70;;;;;;;;;;5016700;28;20455;-85
2023/08/18 10:07:07;;;;;;;4.72;2.70;;;;;;;;;;5032971;28;20048;-85
2023/08/18 10:09:33;;;;;;;7.57;2.63;;;;;;;;;;5032481;28;20029;-85
2023/08/18 10:12:00;;;;;;;5.95;2.40;;;;;;;;;;5016447;28;20053;-85
2023/08/18 10:14:26;;;;;;;4.65;1.85;;;;;;;;;;5032376;28;20032;-85
2023/08/18 10:16:52;;;;;;;5.65;2.30;;;;;;;;;;5033545;28;20038;-85
2023/08/18 10:19:38;;;;;;;4.63;2.20;;;;;;;;;;5016857;28;20116;-85
2023/08/18 10:22:03;;;;;;;4.00;2.42;;;;;;;;;;5032529;28;20045;-85
2023/08/18 10:24:29;;;;;;;4.65;2.50;;;;;;;;;;5015936;28;20033;-85
2023/08/18 10:26:54;;;;;;;6.47;2.42;;;;;;;;;;5032304;28;20041;-86
2023/08/18 10:29:20;;;;;;;6.22;2.10;;;;;;;;;;5032510;28;20060;-85
2023/08/18 10:31:46;;;;;;;7.30;2.60;;;;;;;;;;5032514;28;20033;-85
2023/08/18 10:34:19;;;;;;;5.30;2.60;;;;;;;;;;5031699;28;20056;-86
2023/08/18 10:36:44;;;;;;;6.72;2.35;;;;;;;;;;5032180;28;20069;-85
2023/08/18 10:39:22;;;;;;;5.45;2.00;;;;;;;;;;5033424;28;20091;-86
2023/08/18 10:42:04;;;;;;;3.38;2.08;;;;;;;;;;5000206;28;20029;-86
2023/08/18 10:44:29;;;;;;;5.35;1.90;;;;;;;;;;5032186;28;20038;-86
2023/08/18 10:46:55;;;;;;;4.18;1.92;;;;;;;;;;5016243;28;20033;-86
2023/08/18 10:49:20;;;;;;;3.38;1.83;;;;;;;;;;5015957;28;20048;-86
2023/08/18 10:51:53;;;;;;;4.88;1.95;;;;;;;;;;5015967;28;20394;-86
2023/08/18 10:54:18;;;;;;;6.40;2.00;;;;;;;;;;5031973;28;20041;-86
2023/08/18 10:56:43;;;;;;;4.18;2.00;;;;;;;;;;5033346;28;20032;-86
2023/08/18 10:59:09;;;;;;;4.05;1.88;;;;;;;;;;5016121;28;20072;-85
2023/08/18 11:01:35;;;;;;;4.18;2.15;;;;;;;;;;5033326;28;20485;-85
2023/08/18 11:04:01;;;;;;;5.50;2.17;;;;;;;;;;5033367;28;20435;-85
2023/08/18 11:06:27;;;;;;;7.85;2.55;;;;;;;;;;5031612;28;20037;-86
2023/08/18 11:08:53;;;;;;;4.35;2.45;;;;;;;;;;5032764;28;20048;-85
2023/08/18 11:11:19;;;;;;;3.22;2.15;;;;;;;;;;5032897;28;20051;-85
2023/08/18 11:13:44;;;;;;;4.35;2.10;;;;;;;;;;5031665;28;20551;-85
2023/08/18 11:16:10;;;;;;;4.47;2.30;;;;;;;;;;5031506;28;20033;-85
2023/08/18 11:18:36;;;;;;;5.55;1.95;;;;;;;;;;5032687;28;20163;-85
2023/08/18 11:21:01;;;;;;;3.95;1.88;;;;;;;;;;5031484;28;20057;-85
2023/08/18 11:23:27;;;;;;;3.65;2.00;;;;;;;;;;5033539;28;20099;-85
2023/08/18 11:25:52;;;;;;;3.22;1.83;;;;;;;;;;5032683;28;20038;-85
2023/08/18 11:28:18;;;;;;;6.80;1.67;;;;;;;;;;5031649;28;20452;-85
2023/08/18 11:30:43;;;;;;;5.03;1.88;;;;;;;;;;5031060;28;20017;-86
2023/08/18 11:33:10;;;;;;;3.85;1.70;;;;;;;;;;5031202;28;20496;-84
2023/08/18 11:35:35;;;;;;;3.58;1.60;;;;;;;;;;5031229;28;20405;-85
2023/08/18 11:38:01;;;;;;;4.70;1.80;;;;;;;;;;5031276;28;20030;-86
2023/08/18 11:40:27;;;;;;;3.97;1.80;;;;;;;;;;5015411;28;20025;-85
2023/08/18 11:42:53;;;;;;;8.00;1.73;;;;;;;;;;5031348;28;20030;-86
2023/08/18 11:45:19;;;;;;;4.88;1.65;;;;;;;;;;5032470;28;20032;-86
2023/08/18 11:47:49;;;;;;;2.92;1.50;;;;;;;;;;5032643;28;20042;-86
2023/08/18 11:50:19;;;;;;;3.65;1.70;;;;;;;;;;5032529;28;20052;-85
2023/08/18 11:52:50;;;;;;;5.13;1.67;;;;;;;;;;5032316;28;20075;-85
2023/08/18 11:55:16;;;;;;;5.53;1.60;;;;;;;;;;5030791;28;20060;-86
2023/08/18 11:57:44;;;;;;;5.72;1.80;;;;;;;;;;5030231;28;20504;-85
2023/08/18 12:00:13;;;;;;;4.15;2.00;;;;;;;;;;5014312;28;20128;-85
2023/08/18 12:02:46;;;;;;;3.00;1.80;;;;;;;;;;5031675;28;20029;-85
2023/08/18 12:05:22;;;;;;;6.40;1.50;;;;;;;;;;5030109;28;20038;-85
2023/08/18 12:07:53;;;;;;;4.25;1.58;;;;;;;;;;5031467;28;20065;-85
2023/08/18 12:10:19;;;;;;;2.65;1.50;;;;;;;;;;5030229;28;20041;-85
2023/08/18 12:12:51;;;;;;;5.38;1.60;;;;;;;;;;5030414;28;20033;-85
2023/08/18 12:15:17;;;;;;;3.55;2.03;;;;;;;;;;5030405;28;20030;-86
2023/08/18 12:17:42;;;;;;;3.00;1.40;;;;;;;;;;5029911;28;20067;-85
2023/08/18 12:20:08;;;;;;;2.63;1.23;;;;;;;;;;5031450;28;20085;-85
2023/08/18 12:22:33;;;;;;;3.58;1.88;;;;;;;;;;5031327;28;20038;-85
2023/08/18 12:24:59;;;;;;;3.42;1.63;;;;;;;;;;5030490;28;20156;-86
2023/08/18 12:27:26;;;;;;;3.92;1.35;;;;;;;;;;5014965;28;20025;-86
2023/08/18 12:29:52;;;;;;;2.80;1.38;;;;;;;;;;5032759;28;20045;-85
2023/08/18 12:32:17;;;;;;;2.83;1.30;;;;;;;;;;5032327;28;20381;-85
2023/08/18 12:34:43;;;;;;;4.07;1.30;;;;;;;;;;5013958;28;20034;-85
2023/08/18 12:37:08;;;;;;;4.80;1.33;;;;;;;;;;5031733;28;20034;-85
2023/08/18 12:39:34;;;;;;;2.28;1.17;;;;;;;;;;5031600;28;20038;-85
2023/08/18 12:41:59;;;;;;;2.70;1.10;;;;;;;;;;5031491;28;20443;-85
2023/08/18 12:44:25;;;;;;;3.60;1.23;;;;;;;;;;5029869;28;20515;-85
2023/08/18 12:46:50;;;;;;;3.95;1.48;;;;;;;;;;5030326;28;20108;-85
2023/08/18 12:49:15;;;;;;;3.20;1.40;;;;;;;;;;5029828;28;20040;-85
2023/08/18 12:51:41;;;;;;;2.58;1.40;;;;;;;;;;5030072;28;20033;-85
2023/08/18 12:54:06;;;;;;;2.92;1.55;;;;;;;;;;5031144;28;20033;-86
2023/08/18 12:56:32;;;;;;;2.05;1.40;;;;;;;;;;5031039;28;20033;-85
2023/08/18 12:58:58;;;;;;;4.32;1.58;;;;;;;;;;4996720;28;20040;-85
2023/08/18 13:01:23;;;;;;;2.50;1.40;;;;;;;;;;5029505;28;20401;-86
2023/08/18 13:03:49;;;;;;;7.07;1.83;;;;;;;;;;5029991;28;20053;-86
2023/08/18 13:06:14;;;;;;;5.28;2.00;;;;;;;;;;5029373;28;20030;-85
2023/08/18 13:08:39;;;;;;;6.47;1.70;;;;;;;;;;5029912;28;20443;-85
2023/08/18 13:11:05;;;;;;;6.50;1.88;;;;;;;;;;5029397;28;20401;-85
2023/08/18 13:13:30;;;;;;;5.80;1.75;;;;;;;;;;5029223;28;20428;-85
2023/08/18 13:15:56;;;;;;;3.58;1.80;;;;;;;;;;5013669;28;20028;-84
2023/08/18 13:18:21;;;;;;;5.82;1.90;;;;;;;;;;5029618;28;20045;-86
2023/08/18 13:20:47;;;;;;;6.45;1.98;;;;;;;;;;5030739;28;20053;-86
2023/08/18 13:23:12;;;;;;;2.45;1.60;;;;;;;;;;5012812;28;20030;-85
2023/08/18 13:25:38;;;;;;;9.57;1.95;;;;;;;;;;5030627;28;20044;-86
2023/08/18 13:28:04;;;;;;;5.55;1.73;;;;;;;;;;5029359;28;20084;-84
2023/08/18 13:30:29;;;;;;;3.88;2.20;;;;;;;;;;5031954;28;20030;-87
2023/08/18 13:32:55;;;;;;;4.80;2.10;;;;;;;;;;5034242;28;20041;-84
2023/08/18 13:35:21;;;;;;;11.20;2.10;;;;;;;;;;5032441;28;20040;-85
2023/08/18 13:37:47;;;;;;;3.70;1.55;;;;;;;;;;5033130;28;20500;-85
2023/08/18 13:40:12;;;;;;;6.72;1.80;;;;;;;;;;5032855;28;20018;-85
2023/08/18 13:42:38;;;;;;;7.50;1.80;;;;;;;;;;5033171;28;20033;-85
2023/08/18 13:45:03;;;;;;;7.18;1.92;;;;;;;;;;5033145;28;20142;-87
2023/08/18 13:47:29;;;;;;;6.18;2.85;;;;;;;;;;5016758;28;20049;-85
2023/08/18 13:49:54;;;;;;;2.20;1.30;;;;;;;;;;5034185;28;20069;-85
2023/08/18 13:52:20;;;;;;;2.80;1.52;;;;;;;;;;5033062;28;20044;-86
2023/08/18 13:54:45;;;;;;;7.75;1.67;;;;;;;;;;5032441;28;20030;-86
2023/08/18 13:57:11;;;;;;;4.97;2.63;;;;;;;;;;5033835;28;20140;-86
2023/08/18 13:59:36;;;;;;;8.43;5.55;;;;;;;;;;5032850;28;20032;-84
2023/08/18 14:02:02;;;;;;;14.88;11.85;;;;;;;;;;5033963;28;20045;-85
2023/08/18 14:04:28;;;;;;;10.18;5.80;;;;;;;;;;5032877;28;20033;-86
2023/08/18 14:06:53;;;;;;;8.70;3.10;;;;;;;;;;5034303;28;20030;-85
2023/08/18 14:09:21;;;;;;;6.95;2.00;;;;;;;;;;5032770;28;20381;-85
2023/08/18 14:11:47;;;;;;;4.72;2.00;;;;;;;;;;5033105;28;20099;-85
2023/08/18 14:14:13;;;;;;;4.65;1.80;;;;;;;;;;5015863;28;20029;-85
2023/08/18 14:16:38;;;;;;;2.95;1.70;;;;;;;;;;5032903;28;20103;-85
2023/08/18 14:19:04;;;;;;;2.85;1.98;;;;;;;;;;5033310;28;20037;-85
2023/08/18 14:21:30;;;;;;;5.00;2.05;;;;;;;;;;5015441;28;20068;-85
2023/08/18 14:23:56;;;;;;;5.50;1.73;;;;;;;;;;5032111;28;20043;-86
2023/08/18 14:26:21;;;;;;;3.95;1.95;;;;;;;;;;5032253;28;20381;-86
2023/08/18 14:28:47;;;;;;;5.25;1.80;;;;;;;;;;5032123;28;20404;-86
2023/08/18 14:31:12;;;;;;;7.10;2.08;;;;;;;;;;5032083;28;20408;-86
2023/08/18 14:33:38;;;;;;;4.40;1.90;;;;;;;;;;5032053;28;20543;-85
2023/08/18 14:36:04;;;;;;;3.90;2.10;;;;;;;;;;5015707;28;20084;-85